Terminal Aerodrome Forecast
Issued by NWS Spokane, WA

Home | Current Version | Previous Version | Text Only | Print | Product List | Glossary On
Versions: 1 2 3 4 5 6 7 8 9 10 11 12 13 14 15 16 17 18 19 20 21 22 23 24 25 26 27
000
FTUS46 KOTX 210537 CCA
TAFEAT
TAF COR
KEAT 210537Z 2106/2206 30005KT 5SM -SNPL BR SCT008 OVC021
      TEMPO 2106/2108 1 1/2SM -SN BKN006
     FM211200 30004KT 3SM BR OVC009
     FM211800 12004KT 5SM BR BKN015 OVC040
     FM220100 11005KT 1 1/2SM -SN BR OVC008=

USA.gov is the U.S. government's official web portal to all federal, state and local government web resources and services.